createdAt,value
2018-05-10T00:00:32.991Z,8.10
2018-05-10T00:03:01.308Z,6.93
2018-05-10T00:05:29.526Z,7.13
2018-05-10T00:07:57.828Z,7.47
2018-05-10T00:10:26.833Z,7.10
2018-05-10T00:12:55.964Z,7.73
2018-05-10T00:15:24.249Z,7.70
2018-05-10T00:17:52.434Z,7.73
2018-05-10T00:20:20.697Z,8.50
2018-05-10T00:22:49.049Z,7.60
2018-05-10T00:25:17.297Z,7.43
2018-05-10T00:27:45.640Z,7.93
2018-05-10T00:30:13.870Z,6.67
2018-05-10T00:32:42.130Z,7.40
2018-05-10T00:35:11.166Z,8.17
2018-05-10T00:37:39.440Z,7.70
2018-05-10T00:40:07.689Z,7.43
2018-05-10T00:42:36.732Z,7.80
2018-05-10T00:45:04.969Z,8.90
2018-05-10T00:47:33.314Z,7.47
2018-05-10T00:50:01.555Z,7.60
2018-05-10T00:52:29.818Z,7.83
2018-05-10T00:54:58.150Z,7.63
2018-05-10T00:57:26.393Z,8.60
2018-05-10T00:59:54.647Z,9.27
2018-05-10T01:02:22.955Z,7.87
2018-05-10T01:04:51.244Z,9.77
2018-05-10T01:07:19.480Z,9.83
2018-05-10T01:09:48.601Z,10.37
2018-05-10T01:12:16.930Z,12.87
2018-05-10T01:14:45.291Z,13.10
2018-05-10T01:17:13.548Z,12.87
2018-05-10T01:19:41.801Z,11.53
2018-05-10T01:22:10.068Z,7.57
2018-05-10T01:24:38.416Z,11.70
2018-05-10T01:27:06.818Z,12.17
2018-05-10T01:29:35.046Z,12.13
2018-05-10T01:32:03.469Z,9.97
2018-05-10T01:34:31.719Z,10.20
2018-05-10T01:37:00.004Z,11.50
2018-05-10T01:39:28.498Z,10.10
2018-05-10T01:41:56.787Z,10.40
2018-05-10T01:44:25.046Z,10.70
2018-05-10T01:46:53.329Z,10.60
2018-05-10T01:49:21.610Z,10.00
2018-05-10T01:51:49.892Z,11.50
2018-05-10T01:54:18.269Z,9.30
2018-05-10T01:56:46.540Z,9.43
2018-05-10T01:59:14.829Z,9.50
2018-05-10T02:01:43.109Z,10.13
2018-05-10T02:04:11.414Z,10.20
2018-05-10T02:06:39.665Z,8.90
2018-05-10T02:09:07.996Z,9.10
2018-05-10T02:11:36.226Z,9.30
2018-05-10T02:14:04.501Z,8.63
2018-05-10T02:16:32.750Z,9.30
2018-05-10T02:19:01.895Z,9.23
2018-05-10T02:21:30.141Z,8.70
2018-05-10T02:23:59.156Z,9.03
2018-05-10T02:26:27.404Z,8.63
2018-05-10T02:28:56.424Z,8.70
2018-05-10T02:31:24.674Z,8.57
2018-05-10T02:33:53.815Z,9.40
2018-05-10T02:36:23.010Z,8.60
2018-05-10T02:38:51.153Z,9.10
2018-05-10T02:41:20.197Z,9.57
2018-05-10T02:43:48.513Z,9.97
2018-05-10T02:46:16.856Z,9.67
2018-05-10T02:48:45.101Z,8.63
2018-05-10T02:51:14.239Z,9.53
2018-05-10T02:53:42.516Z,10.03
2018-05-10T02:56:10.914Z,9.20
2018-05-10T02:58:39.175Z,9.30
2018-05-10T03:01:07.426Z,9.37
2018-05-10T03:03:36.466Z,10.30
2018-05-10T03:06:04.717Z,9.40
2018-05-10T03:08:33.012Z,9.87
2018-05-10T03:11:01.292Z,9.73
2018-05-10T03:13:29.558Z,9.10
2018-05-10T03:15:57.801Z,9.67
2018-05-10T03:18:26.143Z,11.17
2018-05-10T03:20:54.392Z,11.63
2018-05-10T03:23:22.697Z,11.40
2018-05-10T03:25:50.949Z,11.13
2018-05-10T03:28:19.227Z,11.50
2018-05-10T03:30:47.484Z,11.40
2018-05-10T03:33:16.548Z,11.57
2018-05-10T03:35:44.815Z,12.73
2018-05-10T03:38:13.231Z,12.77
2018-05-10T03:40:41.476Z,12.50
2018-05-10T03:43:09.748Z,12.23
2018-05-10T03:45:38.028Z,12.60
2018-05-10T03:48:06.310Z,11.80
2018-05-10T03:50:34.559Z,11.00
2018-05-10T03:53:02.826Z,10.70
2018-05-10T03:55:31.856Z,10.80
2018-05-10T03:58:00.124Z,10.67
2018-05-10T04:00:29.138Z,11.77
2018-05-10T04:06:21.068Z,10.93
2018-05-10T04:09:01.912Z,11.20
2018-05-10T04:11:30.184Z,10.97
2018-05-10T04:13:58.543Z,10.97
2018-05-10T04:16:26.917Z,11.80
2018-05-10T04:18:55.170Z,12.87
2018-05-10T04:21:23.456Z,10.80
2018-05-10T04:23:51.702Z,12.80
2018-05-10T04:26:20.032Z,13.27
2018-05-10T04:28:48.320Z,12.13
2018-05-10T04:31:16.582Z,12.33
2018-05-10T04:33:44.828Z,11.30
2018-05-10T04:36:13.878Z,11.67
2018-05-10T04:38:42.137Z,11.50
2018-05-10T04:41:10.399Z,12.50
2018-05-10T04:43:38.818Z,11.77
2018-05-10T04:46:07.011Z,10.53
2018-05-10T04:48:35.258Z,10.90
2018-05-10T04:51:03.517Z,12.20
2018-05-10T04:53:32.546Z,11.80
2018-05-10T04:56:00.807Z,12.57
2018-05-10T04:58:29.068Z,11.10
2018-05-10T05:00:58.139Z,10.00
2018-05-10T05:03:26.462Z,11.37
2018-05-10T05:05:54.628Z,12.00
2018-05-10T05:08:23.660Z,12.13
2018-05-10T05:10:51.909Z,13.40
2018-05-10T05:13:20.180Z,11.80
2018-05-10T05:15:48.497Z,12.33
2018-05-10T05:18:16.793Z,12.87
2018-05-10T05:20:45.170Z,12.03
2018-05-10T05:23:13.445Z,12.77
2018-05-10T05:25:41.761Z,13.53
2018-05-10T05:28:10.021Z,13.00
2018-05-10T05:30:38.356Z,12.87
2018-05-10T05:33:06.647Z,13.30
2018-05-10T05:35:34.959Z,14.40
2018-05-10T05:38:03.240Z,15.73
2018-05-10T05:40:31.490Z,13.87
2018-05-10T05:42:59.784Z,13.63
2018-05-10T05:45:28.032Z,13.20
2018-05-10T05:47:57.053Z,13.83
2018-05-10T05:50:25.354Z,14.20
2018-05-10T05:52:53.601Z,14.50
2018-05-10T05:55:21.872Z,14.87
2018-05-10T05:57:50.908Z,14.70
2018-05-10T06:00:19.384Z,14.70
2018-05-10T06:02:47.704Z,14.40
2018-05-10T06:05:15.978Z,16.33
2018-05-10T06:07:44.325Z,15.67
2018-05-10T06:10:12.609Z,16.03
2018-05-10T06:12:40.866Z,17.07
2018-05-10T06:15:09.128Z,17.93
2018-05-10T06:17:38.187Z,21.47
2018-05-10T06:20:06.456Z,24.00
2018-05-10T06:22:34.742Z,22.70
2018-05-10T06:25:03.062Z,23.40
2018-05-10T06:27:31.284Z,23.47
2018-05-10T06:29:59.668Z,25.03
2018-05-10T06:32:27.942Z,23.27
2018-05-10T06:34:56.220Z,23.00
2018-05-10T06:37:24.486Z,24.03
2018-05-10T06:39:52.850Z,25.73
2018-05-10T06:42:21.861Z,24.20
2018-05-10T06:44:50.153Z,25.50
2018-05-10T06:47:18.437Z,25.30
2018-05-10T06:49:46.704Z,26.37
2018-05-10T06:52:14.952Z,26.97
2018-05-10T06:54:44.009Z,25.00
2018-05-10T06:57:12.251Z,26.90
2018-05-10T06:59:40.552Z,26.63
2018-05-10T07:02:08.833Z,26.87
2018-05-10T07:04:37.180Z,26.57
2018-05-10T07:07:05.522Z,25.53
2018-05-10T07:09:33.911Z,26.57
2018-05-10T07:12:02.039Z,25.43
2018-05-10T07:14:30.308Z,26.67
2018-05-10T07:16:58.544Z,30.13
2018-05-10T07:19:27.597Z,31.87
2018-05-10T07:21:55.848Z,31.13
2018-05-10T07:24:24.172Z,38.57
2018-05-10T07:26:52.432Z,33.90
2018-05-10T07:29:20.717Z,30.60
2018-05-10T07:31:49.005Z,33.30
2018-05-10T07:34:17.276Z,33.30
2018-05-10T07:36:45.524Z,31.10
2018-05-10T07:39:14.600Z,33.90
2018-05-10T07:41:43.675Z,36.80
2018-05-10T07:44:11.969Z,35.70
2018-05-10T07:46:40.231Z,34.30
2018-05-10T07:49:08.522Z,34.83
2018-05-10T07:51:37.123Z,32.23
2018-05-10T07:54:05.543Z,28.80
2018-05-10T07:56:34.695Z,31.83
2018-05-10T07:59:03.238Z,33.43
2018-05-10T08:01:31.813Z,35.63
2018-05-10T08:04:00.403Z,38.30
2018-05-10T08:06:28.699Z,39.20
2018-05-10T08:08:57.013Z,39.97
2018-05-10T08:11:25.506Z,36.80
2018-05-10T08:13:53.881Z,34.50
2018-05-10T08:16:22.227Z,32.10
2018-05-10T08:18:50.497Z,31.97
2018-05-10T08:21:18.752Z,31.83
2018-05-10T08:23:47.788Z,32.40
2018-05-10T08:26:16.042Z,32.00
2018-05-10T08:28:44.317Z,33.27
2018-05-10T08:31:12.638Z,31.70
2018-05-10T08:33:40.950Z,28.90
2018-05-10T08:36:09.180Z,29.03
2018-05-10T08:38:37.488Z,29.70
2018-05-10T08:41:05.719Z,28.43
2018-05-10T08:43:34.045Z,28.37
2018-05-10T08:46:02.288Z,25.37
2018-05-10T08:48:30.546Z,24.10
2018-05-10T08:50:59.724Z,25.60
2018-05-10T08:53:28.889Z,25.97
2018-05-10T08:55:57.144Z,24.70
2018-05-10T08:58:25.454Z,23.47
2018-05-10T09:00:53.702Z,22.17
2018-05-10T09:03:21.964Z,18.30
2018-05-10T09:05:50.984Z,16.70
2018-05-10T09:08:19.241Z,15.10
2018-05-10T09:10:48.318Z,13.43
2018-05-10T09:13:16.672Z,10.50
2018-05-10T09:15:44.931Z,10.10
2018-05-10T09:18:13.189Z,9.30
2018-05-10T09:20:42.205Z,9.83
2018-05-10T09:23:10.458Z,9.60
2018-05-10T09:25:39.503Z,9.83
2018-05-10T09:28:07.776Z,9.07
2018-05-10T09:30:36.016Z,8.73
2018-05-10T09:33:05.115Z,8.77
2018-05-10T09:35:33.305Z,8.17
2018-05-10T09:38:02.325Z,8.00
2018-05-10T09:40:30.626Z,8.80
2018-05-10T09:42:58.873Z,7.57
2018-05-10T09:45:27.126Z,8.77
2018-05-10T09:47:55.456Z,7.80
2018-05-10T09:50:23.712Z,8.20
2018-05-10T09:52:52.012Z,8.47
2018-05-10T09:55:20.296Z,8.57
2018-05-10T09:57:48.545Z,8.40
2018-05-10T10:00:22.432Z,8.60
2018-05-10T10:02:50.690Z,8.10
2018-05-10T10:05:18.962Z,7.60
2018-05-10T10:07:47.200Z,8.10
2018-05-10T10:10:15.503Z,8.27
2018-05-10T10:12:43.740Z,7.40
2018-05-10T10:15:12.777Z,8.20
2018-05-10T10:17:41.081Z,8.40
2018-05-10T10:20:09.314Z,9.30
2018-05-10T10:22:37.833Z,10.60
2018-05-10T10:25:06.123Z,8.23
2018-05-10T10:27:34.384Z,9.93
2018-05-10T10:30:02.686Z,9.10
2018-05-10T10:32:30.957Z,8.63
2018-05-10T10:34:59.228Z,9.67
2018-05-10T10:37:27.473Z,8.90
2018-05-10T10:39:56.498Z,9.43
2018-05-10T10:42:24.736Z,8.40
2018-05-10T10:44:53.766Z,7.90
2018-05-10T10:47:22.014Z,7.43
2018-05-10T10:49:50.480Z,7.43
2018-05-10T10:52:19.887Z,7.23
2018-05-10T10:54:49.191Z,6.47
2018-05-10T10:57:17.776Z,7.30
2018-05-10T10:59:46.864Z,7.10
2018-05-10T11:02:15.393Z,7.50
2018-05-10T11:04:44.583Z,11.57
2018-05-10T11:07:13.146Z,11.03
2018-05-10T11:09:41.618Z,8.57
2018-05-10T11:12:09.995Z,7.03
2018-05-10T11:14:38.391Z,7.50
2018-05-10T11:17:07.079Z,7.97
2018-05-10T11:19:35.439Z,6.63
2018-05-10T11:22:03.715Z,9.77
2018-05-10T11:24:32.097Z,14.77
2018-05-10T11:27:00.503Z,16.70
2018-05-10T11:29:28.808Z,18.43
2018-05-10T11:31:57.090Z,17.60
2018-05-10T11:34:25.631Z,22.40
2018-05-10T11:36:53.930Z,19.77
2018-05-10T11:39:22.310Z,20.70
2018-05-10T11:41:50.695Z,22.13
2018-05-10T11:44:19.022Z,21.47
2018-05-10T11:46:47.300Z,20.43
2018-05-10T11:49:16.431Z,19.00
2018-05-10T11:51:44.682Z,22.03
2018-05-10T11:54:12.968Z,17.70
2018-05-10T11:56:41.233Z,18.33
2018-05-10T11:59:09.506Z,15.70
2018-05-10T12:01:37.937Z,15.63
2018-05-10T12:04:06.449Z,14.73
2018-05-10T12:06:34.699Z,12.67
2018-05-10T12:09:03.018Z,11.83
2018-05-10T12:11:32.040Z,11.07
2018-05-10T12:14:00.300Z,12.23
2018-05-10T12:16:29.328Z,11.57
2018-05-10T12:18:57.616Z,11.70
2018-05-10T12:21:25.893Z,12.20
2018-05-10T12:23:54.157Z,12.70
2018-05-10T12:26:22.457Z,13.53
2018-05-10T12:28:50.725Z,15.10
2018-05-10T12:31:18.969Z,13.53
2018-05-10T12:33:48.090Z,15.30
2018-05-10T12:36:16.389Z,14.43
2018-05-10T12:38:44.778Z,14.93
2018-05-10T12:41:13.065Z,13.90
2018-05-10T12:43:41.314Z,15.27
2018-05-10T12:46:09.616Z,16.87
2018-05-10T12:48:37.929Z,18.77
2018-05-10T12:51:06.167Z,19.20
2018-05-10T12:53:34.428Z,19.90
2018-05-10T12:56:02.721Z,20.57
2018-05-10T12:58:31.708Z,22.00
2018-05-10T13:01:00.935Z,20.97
2018-05-10T13:03:29.179Z,24.30
2018-05-10T13:05:57.449Z,26.97
2018-05-10T13:08:26.537Z,27.30
2018-05-10T13:10:54.804Z,29.97
2018-05-10T13:13:23.079Z,29.73
2018-05-10T13:15:51.380Z,31.07
2018-05-10T13:18:20.436Z,33.73
2018-05-10T13:20:48.715Z,32.07
2018-05-10T13:23:17.003Z,33.30
2018-05-10T13:25:45.268Z,32.20
2018-05-10T13:28:13.598Z,30.80
2018-05-10T13:30:41.960Z,32.63
2018-05-10T13:33:10.220Z,31.73
2018-05-10T13:35:38.504Z,30.67
2018-05-10T13:38:06.764Z,31.43
2018-05-10T13:40:35.029Z,29.07
2018-05-10T13:43:03.509Z,25.33
2018-05-10T13:45:32.536Z,23.33
2018-05-10T13:48:00.793Z,21.10
2018-05-10T13:50:29.061Z,19.50
2018-05-10T13:52:58.128Z,18.73
2018-05-10T13:55:26.368Z,17.80
2018-05-10T13:57:54.658Z,16.93
2018-05-10T14:00:22.937Z,15.77
2018-05-10T14:02:51.192Z,11.60
2018-05-10T14:05:19.485Z,12.53
2018-05-10T14:07:47.779Z,11.00
2018-05-10T14:10:16.061Z,9.70
2018-05-10T14:12:44.338Z,7.33
2018-05-10T14:15:12.652Z,7.30
2018-05-10T14:17:40.871Z,7.13
2018-05-10T14:20:09.123Z,6.40
2018-05-10T14:22:38.135Z,6.73
2018-05-10T14:25:07.219Z,5.90
2018-05-10T14:27:35.579Z,4.70
2018-05-10T14:30:03.940Z,5.70
2018-05-10T14:32:32.176Z,6.43
2018-05-10T14:35:01.214Z,5.73
2018-05-10T14:37:29.453Z,5.33
2018-05-10T14:39:57.717Z,5.30
2018-05-10T14:42:25.957Z,5.97
2018-05-10T14:44:54.213Z,6.40
2018-05-10T14:47:22.523Z,5.20
2018-05-10T14:49:50.788Z,5.47
2018-05-10T14:52:19.025Z,4.97
2018-05-10T14:54:47.303Z,8.53
2018-05-10T14:57:15.549Z,6.80
2018-05-10T14:59:43.896Z,7.50
2018-05-10T15:02:12.142Z,6.43
2018-05-10T15:04:40.399Z,5.83
2018-05-10T15:07:08.659Z,6.47
2018-05-10T15:09:36.948Z,6.53
2018-05-10T15:12:05.221Z,6.00
2018-05-10T15:14:33.496Z,6.30
2018-05-10T15:17:01.733Z,6.50
2018-05-10T15:19:30.752Z,6.70
2018-05-10T15:21:59.003Z,8.13
2018-05-10T15:24:27.274Z,6.77
2018-05-10T15:26:55.515Z,7.00
2018-05-10T15:29:23.831Z,6.97
2018-05-10T15:31:52.074Z,7.67
2018-05-10T15:34:20.354Z,7.10
2018-05-10T15:36:48.670Z,7.80
2018-05-10T15:39:16.917Z,8.03
2018-05-10T15:41:45.177Z,9.73
2018-05-10T15:44:13.417Z,7.60
2018-05-10T15:46:41.774Z,7.83
2018-05-10T15:49:10.450Z,6.40
2018-05-10T15:51:39.738Z,7.97
2018-05-10T15:54:07.992Z,8.67
2018-05-10T15:56:37.033Z,9.20
2018-05-10T15:59:05.281Z,8.07
2018-05-10T16:01:33.542Z,9.20
2018-05-10T16:04:02.553Z,8.50
2018-05-10T16:06:30.817Z,9.00
2018-05-10T16:08:59.838Z,12.00
2018-05-10T16:11:28.124Z,11.10
2018-05-10T16:13:56.411Z,12.10
2018-05-10T16:16:24.898Z,13.03
2018-05-10T16:18:53.171Z,12.47
2018-05-10T16:21:21.484Z,13.40
2018-05-10T16:23:49.706Z,14.20
2018-05-10T16:26:17.971Z,14.50
2018-05-10T16:28:46.219Z,15.07
2018-05-10T16:31:14.567Z,14.70
2018-05-10T16:33:42.821Z,15.87
2018-05-10T16:36:11.098Z,17.87
2018-05-10T16:38:39.357Z,18.40
2018-05-10T16:41:08.399Z,19.47
2018-05-10T16:43:36.664Z,18.93
2018-05-10T16:46:04.921Z,21.40
2018-05-10T16:48:34.752Z,20.97
2018-05-10T16:51:03.056Z,19.17
2018-05-10T16:53:31.394Z,22.10
2018-05-10T16:55:59.613Z,22.90
2018-05-10T16:58:27.884Z,24.17
2018-05-10T17:00:56.178Z,23.80
2018-05-10T17:03:24.442Z,22.40
2018-05-10T17:05:52.739Z,24.63
2018-05-10T17:08:20.988Z,23.80
2018-05-10T17:10:49.255Z,23.20
2018-05-10T17:13:17.509Z,25.43
2018-05-10T17:15:46.562Z,23.40
2018-05-10T17:18:14.842Z,24.07
2018-05-10T17:20:43.115Z,22.70
2018-05-10T17:23:11.365Z,23.67
2018-05-10T17:25:40.504Z,23.13
2018-05-10T17:28:08.767Z,22.40
2018-05-10T17:30:37.052Z,23.90
2018-05-10T17:33:05.349Z,22.77
2018-05-10T17:35:34.477Z,23.77
2018-05-10T17:38:02.905Z,22.30
2018-05-10T17:40:31.246Z,20.07
2018-05-10T17:42:59.477Z,19.50
2018-05-10T17:45:27.757Z,19.53
2018-05-10T17:47:56.058Z,20.00
2018-05-10T17:50:24.320Z,19.40
2018-05-10T17:52:52.576Z,20.43
2018-05-10T17:55:20.937Z,19.40
2018-05-10T17:57:49.893Z,20.33
2018-05-10T18:00:18.164Z,21.20
2018-05-10T18:02:46.415Z,21.07
2018-05-10T18:05:14.690Z,19.27
2018-05-10T18:07:43.701Z,18.90
2018-05-10T18:10:12.018Z,20.20
2018-05-10T18:12:40.276Z,20.53
2018-05-10T18:15:08.572Z,20.73
2018-05-10T18:17:36.860Z,20.80
2018-05-10T18:20:05.112Z,35.43
2018-05-10T18:22:33.384Z,21.50
2018-05-10T18:25:01.677Z,22.73
2018-05-10T18:27:29.943Z,20.93
2018-05-10T18:29:58.246Z,20.17
2018-05-10T18:32:26.535Z,22.17
2018-05-10T18:34:54.798Z,20.20
2018-05-10T18:37:23.065Z,19.50
2018-05-10T18:39:51.317Z,20.63
2018-05-10T18:42:20.347Z,19.87
2018-05-10T18:44:48.588Z,20.47
2018-05-10T18:47:17.628Z,21.27
2018-05-10T18:49:46.254Z,20.17
2018-05-10T18:52:15.449Z,19.43
2018-05-10T18:54:43.856Z,19.90
2018-05-10T18:57:12.085Z,20.50
2018-05-10T18:59:42.180Z,25.20
2018-05-10T19:02:10.476Z,21.53
2018-05-10T19:04:38.799Z,22.20
2018-05-10T19:07:07.153Z,22.93
2018-05-10T19:09:35.536Z,26.43
2018-05-10T19:12:04.152Z,21.50
2018-05-10T19:14:32.636Z,22.57
2018-05-10T19:17:01.128Z,19.70
2018-05-10T19:19:29.605Z,21.10
2018-05-10T19:21:58.189Z,19.80
2018-05-10T19:24:26.683Z,20.73
2018-05-10T19:26:55.364Z,22.30
2018-05-10T19:29:23.949Z,20.57
2018-05-10T19:31:52.701Z,20.90
2018-05-10T19:34:21.126Z,20.00
2018-05-10T19:36:50.214Z,21.80
2018-05-10T19:39:18.460Z,19.20
2018-05-10T19:41:46.876Z,20.30
2018-05-10T19:44:15.248Z,20.67
2018-05-10T19:46:43.556Z,21.03
2018-05-10T19:49:11.993Z,19.67
2018-05-10T19:51:40.636Z,19.37
2018-05-10T19:54:08.980Z,20.93
2018-05-10T19:56:37.379Z,20.10
2018-05-10T19:59:05.631Z,19.63
2018-05-10T20:01:34.045Z,19.97
2018-05-10T20:04:02.385Z,19.30
2018-05-10T20:06:30.657Z,20.17
2018-05-10T20:08:58.985Z,19.80
2018-05-10T20:11:27.262Z,22.57
2018-05-10T20:13:55.524Z,19.80
2018-05-10T20:16:23.783Z,20.73
2018-05-10T20:18:52.075Z,20.17
2018-05-10T20:21:20.378Z,20.17
2018-05-10T20:23:48.626Z,20.47
2018-05-10T20:26:16.977Z,19.60
2018-05-10T20:28:45.208Z,19.77
2018-05-10T20:31:13.524Z,22.60
2018-05-10T20:33:41.769Z,19.80
2018-05-10T20:36:10.042Z,22.53
2018-05-10T20:38:38.288Z,20.30
2018-05-10T20:41:07.329Z,19.60
2018-05-10T20:43:35.621Z,18.73
2018-05-10T20:46:03.994Z,20.80
2018-05-10T20:48:32.241Z,20.60
2018-05-10T20:51:01.619Z,18.40
2018-05-10T20:53:30.205Z,24.10
2018-05-10T20:55:59.380Z,21.10
2018-05-10T20:58:27.673Z,19.83
2018-05-10T21:00:55.965Z,20.23
2018-05-10T21:03:24.194Z,19.90
2018-05-10T21:05:52.460Z,19.33
2018-05-10T21:08:20.713Z,20.40
2018-05-10T21:10:48.995Z,18.70
2018-05-10T21:13:17.328Z,18.67
2018-05-10T21:15:45.585Z,19.33
2018-05-10T21:18:13.853Z,19.17
2018-05-10T21:20:42.864Z,20.07
2018-05-10T21:23:11.159Z,19.57
2018-05-10T21:25:39.479Z,20.30
2018-05-10T21:28:07.745Z,20.07
2018-05-10T21:30:36.022Z,19.33
2018-05-10T21:33:04.384Z,18.77
2018-05-10T21:35:32.634Z,19.17
2018-05-10T21:38:00.897Z,19.17
2018-05-10T21:40:29.917Z,21.03
2018-05-10T21:42:58.280Z,21.00
2018-05-10T21:45:26.477Z,19.40
2018-05-10T21:47:54.753Z,19.90
2018-05-10T21:50:28.092Z,19.10
2018-05-10T21:52:56.344Z,19.83
2018-05-10T21:55:24.610Z,18.90
2018-05-10T21:57:52.931Z,20.50
2018-05-10T22:00:21.185Z,20.33
2018-05-10T22:02:49.469Z,21.17
2018-05-10T22:05:17.752Z,21.10
2018-05-10T22:07:46.148Z,19.87
2018-05-10T22:10:14.457Z,20.20
2018-05-10T22:12:42.710Z,20.20
2018-05-10T22:15:10.969Z,19.43
2018-05-10T22:17:39.285Z,20.90
2018-05-10T22:20:07.562Z,21.17
2018-05-10T22:22:35.875Z,21.03
2018-05-10T22:25:04.070Z,21.13
2018-05-10T22:27:32.382Z,20.50
2018-05-10T22:30:00.743Z,20.73
2018-05-10T22:32:28.941Z,21.97
2018-05-10T22:34:57.226Z,22.47
2018-05-10T22:37:25.494Z,25.17
2018-05-10T22:39:53.745Z,22.23
2018-05-10T22:42:22.788Z,23.93
2018-05-10T22:44:51.055Z,22.80
2018-05-10T22:47:19.339Z,23.60
2018-05-10T22:49:47.963Z,22.87
2018-05-10T22:52:16.547Z,22.23
2018-05-10T22:54:45.953Z,26.33
2018-05-10T22:57:15.255Z,24.53
2018-05-10T22:59:43.751Z,23.77
2018-05-10T23:02:12.106Z,22.10
2018-05-10T23:04:40.404Z,21.73
2018-05-10T23:07:08.659Z,22.80
2018-05-10T23:09:37.009Z,22.43
2018-05-10T23:12:05.202Z,21.70
2018-05-10T23:14:33.465Z,23.83
2018-05-10T23:17:01.772Z,23.47
2018-05-10T23:19:30.565Z,21.40
2018-05-10T23:21:58.932Z,24.00
2018-05-10T23:24:27.187Z,24.83
2018-05-10T23:26:56.223Z,26.13
2018-05-10T23:29:24.496Z,21.73
2018-05-10T23:31:52.766Z,23.57
2018-05-10T23:34:21.026Z,21.73
2018-05-10T23:36:50.072Z,22.70
2018-05-10T23:39:18.321Z,20.83
2018-05-10T23:41:46.615Z,21.60
2018-05-10T23:44:14.856Z,21.90
2018-05-10T23:46:43.889Z,22.57
2018-05-10T23:49:12.173Z,21.90
2018-05-10T23:51:40.486Z,22.10
2018-05-10T23:54:08.717Z,21.30
2018-05-10T23:56:36.990Z,20.50
2018-05-10T23:59:05.237Z,21.27
